Terminal Aerodrome Forecast
Issued by NWS

Home | Current Version | Previous Version | Graphics & Text | Print | Product List | Glossary On
Versions: 1 2 3 4 5 6 7 8 9 10 11 12 13 14 15 16 17 18 19 20 21 22 23 24 25 26 27
000
FTUS43 KLOT 040520
TAFGYY
TAF
KGYY 040520Z 0406/0506 23010KT P6SM VCSH BKN100
     FM040630 33010KT 6SM SHRA VCTS SCT035CB BKN050
      TEMPO 0407/0409 35016G25KT 4SM SHRA SCT007 BKN012
     FM041000 01014G21KT P6SM VCSH SCT007 OVC012
     FM041200 01017G30KT P6SM SCT007 OVC012
     FM041600 01017G28KT P6SM VCSH BKN020 OVC030
     FM042000 02017G27KT 6SM -SHRA BKN030
     FM050000 01013G19KT P6SM BKN035=

USA.gov is the U.S. government's official web portal to all federal, state and local government web resources and services.